メインページ
METAR-TAF:

METAR-TAF

空港 :

アリス・スプリングス空港

アリススプリングス, オーストラリア

緯度: 23-48S, 経度: 133-53E, 海抜: 545m

現時点の気象観測

当レポートは23分前の06:30(UTC)に作成
西/北西の風 5kt
気温 26°C
湿度 8%
気圧 1016 hPa
視程10km以上
1,500メートル以下は雲なし、積乱雲なし

METAR: YBAS 150630Z 29005KT CAVOK 26/M11 Q1016

時間: 16:23 (06:53 UTC)

予報

当レポートは1時間41分前の05:12(UTC)に作成
予報は15日の 06時(UTC)から 16日の 06時(UTC)まで有効
南東の風 6kt
視程10km以上
1,500メートル以下は雲なし、積乱雲なし
15日の 1400時(UTC)から
西/北西の風 5kt
視程10km以上
1,500メートル以下は雲なし、積乱雲なし
16日の 0100時(UTC)から
東/南東の風 5kt
視程10km以上
1,500メートル以下は雲なし、積乱雲なし

TAF: YBAS 150512Z 1506/1606 14006KT CAVOK FM151400 30005KT CAVOK FM160100 12005KT CAVOK

4,000以上の空港の気象観測と天気予報(METAR報とTAF報)

利用可能な観測所は地図上に黄色い丸と赤い丸で示す。

丸の上にカーソルを重ねると観測所名を参照できる。

次にクリックすると気象観測と天気予報を参照できる。

マップの切り替え:黒色「×」印の緑ボタンをクリックして拡大、「-」印の緑ボタンをクリックして縮小、緑色の三角印をクリックして隣りの地図に切り替え


METAR-TAF: